createdAt,value
2023-03-25T00:01:17.035Z,14.80
2023-03-25T00:03:46.432Z,14.73
2023-03-25T00:06:15.528Z,14.75
2023-03-25T00:08:43.819Z,14.77
2023-03-25T00:11:12.323Z,14.79
2023-03-25T00:13:42.261Z,14.78
2023-03-25T00:16:11.266Z,14.77
2023-03-25T00:18:40.979Z,14.71
2023-03-25T00:21:11.792Z,14.66
2023-03-25T00:23:41.400Z,14.61
2023-03-25T00:26:09.584Z,14.59
2023-03-25T00:28:39.501Z,14.53
2023-03-25T00:31:13.227Z,14.52
2023-03-25T00:33:42.778Z,14.53
2023-03-25T00:36:13.719Z,14.51
2023-03-25T00:38:43.449Z,14.49
2023-03-25T00:41:17.720Z,14.53
2023-03-25T00:43:46.468Z,14.54
2023-03-25T00:46:15.010Z,14.53
2023-03-25T00:48:44.866Z,14.50
2023-03-25T00:51:14.468Z,14.53
2023-03-25T00:53:42.896Z,14.53
2023-03-25T00:56:10.981Z,14.56
2023-03-25T00:58:39.488Z,14.60
2023-03-25T01:01:17.642Z,14.61
2023-03-25T01:03:47.070Z,14.65
2023-03-25T01:06:17.110Z,14.70
2023-03-25T01:08:45.921Z,14.78
2023-03-25T01:11:20.375Z,14.78
2023-03-25T01:13:51.348Z,14.77
2023-03-25T01:16:19.744Z,14.84
2023-03-25T01:18:49.622Z,14.96
2023-03-25T01:21:19.199Z,14.95
2023-03-25T01:23:47.410Z,15.04
2023-03-25T01:26:15.596Z,15.03
2023-03-25T01:28:47.004Z,15.09
2023-03-25T01:31:16.937Z,15.09
2023-03-25T01:33:49.450Z,15.11
2023-03-25T01:36:17.646Z,15.09
2023-03-25T01:38:48.050Z,15.03
2023-03-25T01:41:16.028Z,15.00
2023-03-25T01:43:44.058Z,14.97
2023-03-25T01:46:14.990Z,15.01
2023-03-25T01:48:46.496Z,14.80
2023-03-25T01:51:20.233Z,14.99
2023-03-25T01:53:49.767Z,15.05
2023-03-25T01:56:23.724Z,15.12
2023-03-25T01:58:54.002Z,15.11
2023-03-25T02:01:22.686Z,15.18
2023-03-25T02:03:53.286Z,15.15
2023-03-25T02:06:28.543Z,15.13
2023-03-25T02:08:59.352Z,15.16
2023-03-25T02:11:29.700Z,15.11
2023-03-25T02:14:01.725Z,15.13
2023-03-25T02:16:39.445Z,15.14
2023-03-25T02:19:35.558Z,15.04
2023-03-25T02:22:39.321Z,15.05
2023-03-25T02:25:35.589Z,15.07
2023-03-25T02:28:13.728Z,15.03
2023-03-25T02:30:55.180Z,14.90
2023-03-25T02:33:44.429Z,14.88
2023-03-25T02:36:41.690Z,14.92
2023-03-25T02:39:16.483Z,14.87
2023-03-25T02:41:51.451Z,14.86
2023-03-25T02:44:26.249Z,14.90
2023-03-25T02:46:58.267Z,14.94
2023-03-25T02:49:31.363Z,14.98
2023-03-25T02:52:05.777Z,15.04
2023-03-25T02:54:39.257Z,15.07
2023-03-25T02:57:09.291Z,15.06
2023-03-25T02:59:40.127Z,14.94
2023-03-25T03:02:11.814Z,15.00
2023-03-25T03:04:48.354Z,14.86
2023-03-25T03:07:23.884Z,14.86
2023-03-25T03:10:01.520Z,14.74
2023-03-25T03:12:45.297Z,14.75
2023-03-25T03:15:24.285Z,14.78
2023-03-25T03:18:10.180Z,14.83
2023-03-25T03:20:42.009Z,14.66
2023-03-25T03:23:18.001Z,14.70
2023-03-25T03:25:53.530Z,14.82
2023-03-25T03:28:27.750Z,14.99
2023-03-25T03:31:06.889Z,14.88
2023-03-25T03:33:42.078Z,14.87
2023-03-25T03:36:15.335Z,14.95
2023-03-25T03:38:50.221Z,15.05
2023-03-25T03:41:24.928Z,15.13
2023-03-25T03:43:59.168Z,15.14
2023-03-25T03:46:31.001Z,15.06
2023-03-25T03:49:02.668Z,15.05
2023-03-25T03:51:34.643Z,15.04
2023-03-25T03:54:06.836Z,15.13
2023-03-25T03:56:41.467Z,15.14
2023-03-25T03:59:16.956Z,15.15
2023-03-25T04:01:48.686Z,15.11
2023-03-25T04:04:21.242Z,15.12
2023-03-25T04:06:56.957Z,15.12
2023-03-25T04:09:33.875Z,15.06
2023-03-25T04:12:09.915Z,15.15
2023-03-25T04:14:39.641Z,15.05
2023-03-25T04:17:07.723Z,15.14
2023-03-25T04:19:36.181Z,15.19
2023-03-25T04:22:06.024Z,15.03
2023-03-25T04:24:37.733Z,15.13
2023-03-25T04:27:09.671Z,15.22
2023-03-25T04:29:40.106Z,15.14
2023-03-25T04:32:09.987Z,15.28
2023-03-25T04:34:38.040Z,15.21
2023-03-25T04:37:06.108Z,15.19
2023-03-25T04:39:34.366Z,15.25
2023-03-25T04:42:03.361Z,15.28
2023-03-25T04:44:39.037Z,15.29
2023-03-25T04:47:12.041Z,15.13
2023-03-25T04:49:40.228Z,15.12
2023-03-25T04:52:09.463Z,15.05
2023-03-25T04:54:38.568Z,15.11
2023-03-25T04:57:08.680Z,15.10
2023-03-25T04:59:39.121Z,15.15
2023-03-25T05:02:07.908Z,15.13
2023-03-25T05:04:35.918Z,15.05
2023-03-25T05:07:04.437Z,15.05
2023-03-25T05:09:32.451Z,15.16
2023-03-25T05:12:00.484Z,15.14
2023-03-25T05:14:28.750Z,15.08
2023-03-25T05:17:00.201Z,15.16
2023-03-25T05:19:29.202Z,15.11
2023-03-25T05:21:58.121Z,14.87
2023-03-25T05:24:26.306Z,14.83
2023-03-25T05:26:54.982Z,14.82
2023-03-25T05:29:23.069Z,14.98
2023-03-25T05:31:51.268Z,14.85
2023-03-25T05:34:20.976Z,14.86
2023-03-25T05:36:48.983Z,14.91
2023-03-25T05:39:17.703Z,15.02
2023-03-25T05:41:46.136Z,15.12
2023-03-25T05:44:15.347Z,15.16
2023-03-25T05:46:43.688Z,15.14
2023-03-25T05:49:11.979Z,15.11
2023-03-25T05:51:41.946Z,14.98
2023-03-25T05:54:11.510Z,15.05
2023-03-25T05:56:41.528Z,15.13
2023-03-25T05:59:10.478Z,15.29
2023-03-25T06:01:38.818Z,15.17
2023-03-25T06:04:10.503Z,15.48
2023-03-25T06:06:39.478Z,15.61
2023-03-25T06:09:10.264Z,15.71
2023-03-25T06:11:39.065Z,15.88
2023-03-25T06:14:09.242Z,15.71
2023-03-25T06:16:37.423Z,16.06
2023-03-25T06:19:05.514Z,15.96
2023-03-25T06:21:34.999Z,16.07
2023-03-25T06:24:03.307Z,15.88
2023-03-25T06:26:33.235Z,15.94
2023-03-25T06:29:02.655Z,15.96
2023-03-25T06:31:34.194Z,15.65
2023-03-25T06:34:03.104Z,15.71
2023-03-25T06:36:31.584Z,15.67
2023-03-25T06:38:59.712Z,15.71
2023-03-25T06:41:29.067Z,15.69
2023-03-25T06:43:59.437Z,15.71
2023-03-25T06:46:28.716Z,15.68
2023-03-25T06:48:58.681Z,15.71
2023-03-25T06:51:27.216Z,15.76
2023-03-25T06:53:55.512Z,16.08
2023-03-25T06:56:23.550Z,16.10
2023-03-25T06:58:51.529Z,16.04
2023-03-25T07:01:21.270Z,15.93
2023-03-25T07:03:49.263Z,16.12
2023-03-25T07:06:19.703Z,16.00
2023-03-25T07:08:48.848Z,16.01
2023-03-25T07:11:19.184Z,15.90
2023-03-25T07:13:47.418Z,15.65
2023-03-25T07:16:15.410Z,15.76
2023-03-25T07:18:44.874Z,15.62
2023-03-25T07:21:13.528Z,15.59
2023-03-25T07:23:41.580Z,15.67
2023-03-25T07:26:09.880Z,15.49
2023-03-25T07:28:39.003Z,15.77
2023-03-25T07:31:08.547Z,15.74
2023-03-25T07:33:37.190Z,15.85
2023-03-25T07:36:09.075Z,15.67
2023-03-25T07:38:37.301Z,15.83
2023-03-25T07:41:06.900Z,15.76
2023-03-25T07:43:34.975Z,15.84
2023-03-25T07:46:03.720Z,15.91
2023-03-25T07:48:32.273Z,15.82
2023-03-25T07:51:00.348Z,15.74
2023-03-25T07:53:29.549Z,16.05
2023-03-25T07:55:57.745Z,16.14
2023-03-25T07:58:25.804Z,16.26
2023-03-25T08:00:53.936Z,16.22
2023-03-25T08:03:23.047Z,16.58
2023-03-25T08:05:51.317Z,16.69
2023-03-25T08:08:19.478Z,16.62
2023-03-25T08:10:49.140Z,16.64
2023-03-25T08:13:17.105Z,16.80
2023-03-25T08:15:45.093Z,16.63
2023-03-25T08:18:13.483Z,16.52
2023-03-25T08:20:42.189Z,16.54
2023-03-25T08:23:12.636Z,16.44
2023-03-25T08:25:42.027Z,15.95
2023-03-25T08:28:12.123Z,16.22
2023-03-25T08:30:40.520Z,15.90
2023-03-25T08:33:10.142Z,16.23
2023-03-25T08:35:40.517Z,16.02
2023-03-25T08:38:09.208Z,16.30
2023-03-25T08:40:37.730Z,16.48
2023-03-25T08:43:07.070Z,16.49
2023-03-25T08:45:36.800Z,16.73
2023-03-25T08:48:06.712Z,16.50
2023-03-25T08:50:34.861Z,16.62
2023-03-25T08:53:03.971Z,16.64
2023-03-25T08:55:32.126Z,16.69
2023-03-25T08:58:02.995Z,16.73
2023-03-25T09:00:32.448Z,16.72
2023-03-25T09:03:02.031Z,17.10
2023-03-25T09:05:30.277Z,17.04
2023-03-25T09:07:58.886Z,17.33
2023-03-25T09:10:27.185Z,17.42
2023-03-25T09:12:55.193Z,17.32
2023-03-25T09:15:23.943Z,17.16
2023-03-25T09:17:52.055Z,17.43
2023-03-25T09:20:22.166Z,17.81
2023-03-25T09:22:51.038Z,17.57
2023-03-25T09:25:19.685Z,18.00
2023-03-25T09:27:47.746Z,17.85
2023-03-25T09:30:16.565Z,18.20
2023-03-25T09:32:45.535Z,17.99
2023-03-25T09:35:13.701Z,18.17
2023-03-25T09:37:44.503Z,18.45
2023-03-25T09:40:16.482Z,18.52
2023-03-25T09:43:01.726Z,18.69
2023-03-25T09:45:36.155Z,19.09
2023-03-25T09:48:11.160Z,19.06
2023-03-25T09:50:41.540Z,18.65
2023-03-25T09:53:26.050Z,18.74
2023-03-25T09:55:54.789Z,18.44
2023-03-25T09:58:42.830Z,18.25
2023-03-25T10:01:27.904Z,18.33
2023-03-25T10:04:09.035Z,18.24
2023-03-25T10:06:44.178Z,18.42
2023-03-25T10:09:31.262Z,18.33
2023-03-25T10:12:05.377Z,18.49
2023-03-25T10:14:42.788Z,18.16
2023-03-25T10:17:22.016Z,18.19
2023-03-25T10:20:04.964Z,17.98
2023-03-25T10:22:41.720Z,18.04
2023-03-25T10:25:19.187Z,17.85
2023-03-25T10:27:50.605Z,18.20
2023-03-25T10:30:22.665Z,18.56
2023-03-25T10:32:54.493Z,18.71
2023-03-25T10:35:26.456Z,18.78
2023-03-25T10:37:59.225Z,18.83
2023-03-25T10:40:32.770Z,18.91
2023-03-25T10:43:14.135Z,19.15
2023-03-25T10:45:44.162Z,18.84
2023-03-25T10:48:15.900Z,19.15
2023-03-25T10:50:45.011Z,19.37
2023-03-25T10:53:24.228Z,19.31
2023-03-25T10:55:59.316Z,19.22
2023-03-25T10:58:28.082Z,19.07
2023-03-25T11:00:56.522Z,19.20
2023-03-25T11:03:31.278Z,18.88
2023-03-25T11:05:59.935Z,18.78
2023-03-25T11:08:28.234Z,18.91
2023-03-25T11:10:59.375Z,18.73
2023-03-25T11:13:29.591Z,18.77
2023-03-25T11:16:00.698Z,18.68
2023-03-25T11:18:32.711Z,18.51
2023-03-25T11:21:04.086Z,18.72
2023-03-25T11:23:34.611Z,18.53
2023-03-25T11:26:08.001Z,18.65
2023-03-25T11:28:40.212Z,19.01
2023-03-25T11:31:11.666Z,18.99
2023-03-25T11:33:42.107Z,19.13
2023-03-25T11:36:22.984Z,19.46
2023-03-25T11:38:59.102Z,19.19
2023-03-25T11:41:37.520Z,18.88
2023-03-25T11:44:07.213Z,19.23
2023-03-25T11:46:38.259Z,19.29
2023-03-25T11:49:12.569Z,19.47
2023-03-25T11:51:41.176Z,19.67
2023-03-25T11:54:13.605Z,19.84
2023-03-25T11:56:45.534Z,19.60
2023-03-25T11:59:23.974Z,19.45
2023-03-25T12:01:53.599Z,19.81
2023-03-25T12:04:24.187Z,19.67
2023-03-25T12:06:59.006Z,19.60
2023-03-25T12:09:30.642Z,19.50
2023-03-25T12:12:23.093Z,19.64
2023-03-25T12:15:04.611Z,19.29
2023-03-25T12:17:49.048Z,19.29
2023-03-25T12:20:26.935Z,19.41
2023-03-25T12:23:03.692Z,19.11
2023-03-25T12:25:42.803Z,19.61
2023-03-25T12:28:32.725Z,18.98
2023-03-25T12:31:09.099Z,19.49
2023-03-25T12:33:52.751Z,19.33
2023-03-25T12:36:38.931Z,19.48
2023-03-25T12:39:39.868Z,19.80
2023-03-25T12:42:33.804Z,19.51
2023-03-25T12:45:24.992Z,20.20
2023-03-25T12:47:59.985Z,20.42
2023-03-25T12:50:38.645Z,20.76
2023-03-25T12:53:27.720Z,20.35
2023-03-25T12:56:06.839Z,19.53
2023-03-25T12:59:08.180Z,19.65
2023-03-25T13:01:48.777Z,19.12
2023-03-25T13:04:32.852Z,18.58
2023-03-25T13:07:04.405Z,18.74
2023-03-25T13:09:38.757Z,18.66
2023-03-25T13:12:12.672Z,18.27
2023-03-25T13:14:48.090Z,18.69
2023-03-25T13:17:27.154Z,18.73
2023-03-25T13:20:00.177Z,18.34
2023-03-25T13:22:34.464Z,18.41
2023-03-25T13:25:08.077Z,18.33
2023-03-25T13:27:42.498Z,18.13
2023-03-25T13:30:21.219Z,18.30
2023-03-25T13:32:56.118Z,18.33
2023-03-25T13:35:35.259Z,18.41
2023-03-25T13:38:07.903Z,18.17
2023-03-25T13:40:41.660Z,18.50
2023-03-25T13:43:15.607Z,18.38
2023-03-25T13:45:52.197Z,18.10
2023-03-25T13:48:26.312Z,18.40
2023-03-25T13:50:54.673Z,18.09
2023-03-25T13:53:28.606Z,18.06
2023-03-25T13:56:13.296Z,18.02
2023-03-25T13:58:57.135Z,18.37
2023-03-25T14:01:39.942Z,18.71
2023-03-25T14:04:41.154Z,18.70
2023-03-25T14:07:27.030Z,18.36
2023-03-25T14:10:29.370Z,18.26
2023-03-25T14:13:00.242Z,18.79
2023-03-25T14:15:33.015Z,19.39
2023-03-25T14:18:01.759Z,19.52
2023-03-25T14:20:37.715Z,19.58
2023-03-25T14:23:09.532Z,19.56
2023-03-25T14:25:41.714Z,19.74
2023-03-25T14:28:16.469Z,19.76
2023-03-25T14:30:45.953Z,19.82
2023-03-25T14:33:14.335Z,19.86
2023-03-25T14:35:51.728Z,19.38
2023-03-25T14:38:51.387Z,19.36
2023-03-25T14:41:52.896Z,18.94
2023-03-25T14:44:21.877Z,19.12
2023-03-25T14:46:50.043Z,19.39
2023-03-25T14:49:22.310Z,19.79
2023-03-25T14:51:55.591Z,19.29
2023-03-25T14:54:34.707Z,19.31
2023-03-25T14:57:08.738Z,19.27
2023-03-25T14:59:40.229Z,19.02
2023-03-25T15:02:17.462Z,18.63
2023-03-25T15:04:46.688Z,18.44
2023-03-25T15:07:20.683Z,18.79
2023-03-25T15:09:53.986Z,18.44
2023-03-25T15:12:26.388Z,18.34
2023-03-25T15:14:57.840Z,18.56
2023-03-25T15:17:50.496Z,18.64
2023-03-25T15:20:36.009Z,18.68
2023-03-25T15:23:36.478Z,18.53
2023-03-25T15:26:06.358Z,18.47
2023-03-25T15:28:50.289Z,18.45
2023-03-25T15:31:41.979Z,18.54
2023-03-25T15:34:24.625Z,18.54
2023-03-25T15:37:14.195Z,18.20
2023-03-25T15:40:00.520Z,18.31
2023-03-25T15:43:00.387Z,18.37
2023-03-25T15:45:48.214Z,18.57
2023-03-25T15:48:34.411Z,18.48
2023-03-25T15:51:17.343Z,18.57
2023-03-25T15:54:04.645Z,18.52
2023-03-25T15:56:40.802Z,18.80
2023-03-25T15:59:20.117Z,18.76
2023-03-25T16:01:52.962Z,18.67
2023-03-25T16:04:33.470Z,18.41
2023-03-25T16:07:04.513Z,18.41
2023-03-25T16:09:35.249Z,18.34
2023-03-25T16:12:09.438Z,18.59
2023-03-25T16:14:39.440Z,18.45
2023-03-25T16:17:08.939Z,18.33
2023-03-25T16:19:42.511Z,17.79
2023-03-25T16:22:18.362Z,17.79
2023-03-25T16:24:48.792Z,17.89
2023-03-25T16:27:24.893Z,17.59
2023-03-25T16:29:55.518Z,17.74
2023-03-25T16:32:26.353Z,17.53
2023-03-25T16:34:54.842Z,17.80
2023-03-25T16:37:25.291Z,17.58
2023-03-25T16:39:55.559Z,17.63
2023-03-25T16:42:31.216Z,17.72
2023-03-25T16:44:59.488Z,17.37
2023-03-25T16:47:30.083Z,17.41
2023-03-25T16:50:01.366Z,17.57
2023-03-25T16:52:33.444Z,17.15
2023-03-25T16:55:29.448Z,16.99
2023-03-25T16:58:01.118Z,17.14
2023-03-25T17:00:40.861Z,17.24
2023-03-25T17:03:15.525Z,17.19
2023-03-25T17:05:59.336Z,17.12
2023-03-25T17:08:28.563Z,16.95
2023-03-25T17:10:59.416Z,16.85
2023-03-25T17:13:33.059Z,16.88
2023-03-25T17:16:01.411Z,16.60
2023-03-25T17:18:32.318Z,16.78
2023-03-25T17:21:01.689Z,16.58
2023-03-25T17:23:36.573Z,16.68
2023-03-25T17:26:08.057Z,16.46
2023-03-25T17:28:40.050Z,16.45
2023-03-25T17:31:28.071Z,16.32
2023-03-25T17:34:01.837Z,16.15
2023-03-25T17:36:32.486Z,16.01
2023-03-25T17:39:03.967Z,16.13
2023-03-25T17:41:37.690Z,16.02
2023-03-25T17:44:08.234Z,16.08
2023-03-25T17:46:36.305Z,15.90
2023-03-25T17:49:15.625Z,16.13
2023-03-25T17:51:44.785Z,16.33
2023-03-25T17:54:14.593Z,16.02
2023-03-25T17:56:43.864Z,15.96
2023-03-25T17:59:19.248Z,15.94
2023-03-25T18:01:50.105Z,15.94
2023-03-25T18:04:21.012Z,16.29
2023-03-25T18:06:49.989Z,15.99
2023-03-25T18:09:21.961Z,15.75
2023-03-25T18:11:53.186Z,16.05
2023-03-25T18:14:24.171Z,15.75
2023-03-25T18:16:52.838Z,16.06
2023-03-25T18:19:23.292Z,15.80
2023-03-25T18:21:51.643Z,15.91
2023-03-25T18:24:19.712Z,15.87
2023-03-25T18:26:48.418Z,15.90
2023-03-25T18:29:21.219Z,15.90
2023-03-25T18:31:52.578Z,15.86
2023-03-25T18:34:23.609Z,15.77
2023-03-25T18:36:53.927Z,15.55
2023-03-25T18:39:24.776Z,15.50
2023-03-25T18:41:52.867Z,15.59
2023-03-25T18:44:21.540Z,15.67
2023-03-25T18:46:51.178Z,15.25
2023-03-25T18:49:20.904Z,15.26
2023-03-25T18:51:49.329Z,15.29
2023-03-25T18:54:18.921Z,15.32
2023-03-25T18:56:46.945Z,15.20
2023-03-25T18:59:18.414Z,15.35
2023-03-25T19:01:47.348Z,15.37
2023-03-25T19:04:18.246Z,15.20
2023-03-25T19:06:48.388Z,15.19
2023-03-25T19:09:19.209Z,14.93
2023-03-25T19:11:48.180Z,14.89
2023-03-25T19:14:16.255Z,15.12
2023-03-25T19:16:57.129Z,15.21
2023-03-25T19:19:33.301Z,15.05
2023-03-25T19:22:01.662Z,15.10
2023-03-25T19:24:30.019Z,15.11
2023-03-25T19:26:58.819Z,14.92
2023-03-25T19:29:27.799Z,14.82
2023-03-25T19:31:55.742Z,14.73
2023-03-25T19:34:24.565Z,14.70
2023-03-25T19:37:05.172Z,14.62
2023-03-25T19:39:34.179Z,14.71
2023-03-25T19:42:04.328Z,14.70
2023-03-25T19:44:32.976Z,14.67
2023-03-25T19:47:01.256Z,14.57
2023-03-25T19:49:36.808Z,14.58
2023-03-25T19:52:09.308Z,14.65
2023-03-25T19:54:37.385Z,14.55
2023-03-25T19:57:05.688Z,14.61
2023-03-25T19:59:33.976Z,14.70
2023-03-25T20:02:02.785Z,14.46
2023-03-25T20:04:31.056Z,14.33
2023-03-25T20:06:59.506Z,14.38
2023-03-25T20:09:30.162Z,14.51
2023-03-25T20:11:58.503Z,14.25
2023-03-25T20:14:26.510Z,14.35
2023-03-25T20:16:55.080Z,14.50
2023-03-25T20:19:23.863Z,14.46
2023-03-25T20:21:52.259Z,14.57
2023-03-25T20:24:20.503Z,14.64
2023-03-25T20:26:50.261Z,14.50
2023-03-25T20:29:19.586Z,14.67
2023-03-25T20:31:48.091Z,14.76
2023-03-25T20:34:16.455Z,14.81
2023-03-25T20:36:44.445Z,14.78
2023-03-25T20:39:12.841Z,14.80
2023-03-25T20:41:41.119Z,14.85
2023-03-25T20:44:11.975Z,14.90
2023-03-25T20:46:44.053Z,14.93
2023-03-25T20:49:14.142Z,14.55
2023-03-25T20:51:43.521Z,14.77
2023-03-25T20:54:12.108Z,14.82
2023-03-25T20:56:40.585Z,14.78
2023-03-25T20:59:09.319Z,14.78
2023-03-25T21:01:38.933Z,14.82
2023-03-25T21:04:07.169Z,14.86
2023-03-25T21:06:35.783Z,14.88
2023-03-25T21:09:07.350Z,14.86
2023-03-25T21:11:36.005Z,14.84
2023-03-25T21:14:05.023Z,14.89
2023-03-25T21:16:33.457Z,14.99
2023-03-25T21:19:03.251Z,14.89
2023-03-25T21:21:32.725Z,14.71
2023-03-25T21:24:01.111Z,14.90
2023-03-25T21:26:29.471Z,14.54
2023-03-25T21:28:57.948Z,14.55
2023-03-25T21:31:26.714Z,14.71
2023-03-25T21:33:57.531Z,14.42
2023-03-25T21:36:28.583Z,14.84
2023-03-25T21:38:58.085Z,14.58
2023-03-25T21:41:27.570Z,14.56
2023-03-25T21:43:55.858Z,14.89
2023-03-25T21:46:27.182Z,14.73
2023-03-25T21:48:58.551Z,14.71
2023-03-25T21:51:30.274Z,14.79
2023-03-25T21:54:00.470Z,14.67
2023-03-25T21:56:31.333Z,14.76
2023-03-25T21:59:01.684Z,14.72
2023-03-25T22:01:30.262Z,14.64
2023-03-25T22:03:59.995Z,14.63
2023-03-25T22:06:31.543Z,14.50
2023-03-25T22:09:05.087Z,14.44
2023-03-25T22:11:34.780Z,14.30
2023-03-25T22:14:05.307Z,14.16
2023-03-25T22:16:33.818Z,14.15
2023-03-25T22:19:01.890Z,14.22
2023-03-25T22:21:34.370Z,14.05
2023-03-25T22:24:05.007Z,14.02
2023-03-25T22:26:35.018Z,13.88
2023-03-25T22:29:06.097Z,13.95
2023-03-25T22:31:39.496Z,13.84
2023-03-25T22:34:11.954Z,13.67
2023-03-25T22:36:44.383Z,13.48
2023-03-25T22:39:12.516Z,13.63
2023-03-25T22:41:41.096Z,13.63
2023-03-25T22:44:09.334Z,13.67
2023-03-25T22:46:37.433Z,13.35
2023-03-25T22:49:05.999Z,13.42
2023-03-25T22:51:34.195Z,13.27
2023-03-25T22:54:05.266Z,13.56
2023-03-25T22:56:34.480Z,13.18
2023-03-25T22:59:03.314Z,13.63
2023-03-25T23:01:31.764Z,13.25
2023-03-25T23:04:00.302Z,13.49
2023-03-25T23:06:28.495Z,13.33
2023-03-25T23:08:58.240Z,13.36
2023-03-25T23:11:30.057Z,13.34
2023-03-25T23:14:01.105Z,13.45
2023-03-25T23:16:31.473Z,13.10
2023-03-25T23:18:59.704Z,13.27
2023-03-25T23:21:30.085Z,13.25
2023-03-25T23:24:00.267Z,13.05
2023-03-25T23:26:34.488Z,13.16
2023-03-25T23:29:04.631Z,13.17
2023-03-25T23:31:34.813Z,13.03
2023-03-25T23:34:06.623Z,12.89
2023-03-25T23:36:38.317Z,12.86
2023-03-25T23:39:08.941Z,13.13
2023-03-25T23:41:38.754Z,13.23
2023-03-25T23:44:07.542Z,13.22
2023-03-25T23:46:36.361Z,13.24
2023-03-25T23:49:05.707Z,13.61
2023-03-25T23:51:36.532Z,13.66
2023-03-25T23:54:06.401Z,13.48
2023-03-25T23:56:35.294Z,13.68
2023-03-25T23:59:05.692Z,13.62
